sensor_id;sensor_type;location;lat;lon;timestamp;P1;durP1;ratioP1;P2;durP2;ratioP2
41255;SDS011;26989;45.524;10.938;2022-10-24T06:07:12;23.88;;;11.63;;
41255;SDS011;26989;45.524;10.938;2022-10-24T06:09:39;24.88;;;11.13;;
41255;SDS011;26989;45.524;10.938;2022-10-24T06:12:07;18.83;;;11.35;;
41255;SDS011;26989;45.524;10.938;2022-10-24T06:14:35;23.23;;;11.90;;
41255;SDS011;26989;45.524;10.938;2022-10-24T06:17:03;27.25;;;12.32;;
41255;SDS011;26989;45.524;10.938;2022-10-24T06:19:31;25.80;;;12.25;;
41255;SDS011;26989;45.524;10.938;2022-10-24T06:21:58;25.05;;;13.55;;
41255;SDS011;26989;45.524;10.938;2022-10-24T06:24:25;26.05;;;12.52;;
41255;SDS011;26989;45.524;10.938;2022-10-24T06:26:51;19.05;;;10.95;;
41255;SDS011;26989;45.524;10.938;2022-10-24T06:29:18;25.08;;;12.30;;
41255;SDS011;26989;45.524;10.938;2022-10-24T06:31:45;26.80;;;11.02;;
41255;SDS011;26989;45.524;10.938;2022-10-24T06:34:12;21.58;;;11.63;;
41255;SDS011;26989;45.524;10.938;2022-10-24T06:36:39;28.85;;;12.55;;
41255;SDS011;26989;45.524;10.938;2022-10-24T06:41:37;24.08;;;10.98;;
41255;SDS011;26989;45.524;10.938;2022-10-24T06:44:04;25.88;;;11.63;;
41255;SDS011;26989;45.524;10.938;2022-10-24T06:46:36;26.35;;;12.38;;
41255;SDS011;26989;45.524;10.938;2022-10-24T06:49:03;23.77;;;11.57;;
41255;SDS011;26989;45.524;10.938;2022-10-24T06:51:30;28.83;;;11.63;;
41255;SDS011;26989;45.524;10.938;2022-10-24T06:53:57;23.92;;;11.32;;
41255;SDS011;26989;45.524;10.938;2022-10-24T06:56:24;22.85;;;11.52;;
41255;SDS011;26989;45.524;10.938;2022-10-24T06:58:51;22.35;;;11.18;;
41255;SDS011;26989;45.524;10.938;2022-10-24T07:01:19;23.85;;;11.65;;
41255;SDS011;26989;45.524;10.938;2022-10-24T07:03:47;20.55;;;11.48;;
41255;SDS011;26989;45.524;10.938;2022-10-24T07:06:16;32.38;;;12.02;;
41255;SDS011;26989;45.524;10.938;2022-10-24T07:08:51;24.40;;;11.90;;
41255;SDS011;26989;45.524;10.938;2022-10-24T07:11:19;24.45;;;11.45;;
41255;SDS011;26989;45.524;10.938;2022-10-24T07:13:46;19.63;;;10.80;;
41255;SDS011;26989;45.524;10.938;2022-10-24T07:16:13;24.33;;;10.40;;
41255;SDS011;26989;45.524;10.938;2022-10-24T07:18:41;19.92;;;11.43;;
41255;SDS011;26989;45.524;10.938;2022-10-24T07:21:10;25.60;;;12.00;;
41255;SDS011;26989;45.524;10.938;2022-10-24T07:23:43;27.17;;;11.60;;
41255;SDS011;26989;45.524;10.938;2022-10-24T07:26:11;23.17;;;10.88;;
41255;SDS011;26989;45.524;10.938;2022-10-24T07:28:43;24.60;;;11.68;;
41255;SDS011;26989;45.524;10.938;2022-10-24T07:31:18;25.98;;;11.75;;
41255;SDS011;26989;45.524;10.938;2022-10-24T07:33:46;22.90;;;10.90;;
41255;SDS011;26989;45.524;10.938;2022-10-24T07:36:14;19.98;;;11.10;;
41255;SDS011;26989;45.524;10.938;2022-10-24T07:38:43;18.73;;;10.23;;
41255;SDS011;26989;45.524;10.938;2022-10-24T07:41:10;21.02;;;10.20;;
41255;SDS011;26989;45.524;10.938;2022-10-24T07:43:36;25.70;;;10.93;;
41255;SDS011;26989;45.524;10.938;2022-10-24T07:46:04;23.40;;;11.02;;
41255;SDS011;26989;45.524;10.938;2022-10-24T07:48:32;21.35;;;10.82;;
41255;SDS011;26989;45.524;10.938;2022-10-24T07:51:03;26.50;;;11.15;;
41255;SDS011;26989;45.524;10.938;2022-10-24T07:53:31;35.40;;;12.27;;
41255;SDS011;26989;45.524;10.938;2022-10-24T07:55:58;26.65;;;10.68;;
41255;SDS011;26989;45.524;10.938;2022-10-24T07:58:26;26.15;;;10.25;;
41255;SDS011;26989;45.524;10.938;2022-10-24T08:00:54;21.00;;;10.43;;
41255;SDS011;26989;45.524;10.938;2022-10-24T08:03:21;26.50;;;10.68;;
41255;SDS011;26989;45.524;10.938;2022-10-24T08:05:47;22.52;;;11.32;;
41255;SDS011;26989;45.524;10.938;2022-10-24T08:08:14;30.70;;;10.88;;
41255;SDS011;26989;45.524;10.938;2022-10-24T08:11:05;19.38;;;10.55;;
41255;SDS011;26989;45.524;10.938;2022-10-24T08:13:36;22.23;;;10.02;;
41255;SDS011;26989;45.524;10.938;2022-10-24T08:16:05;22.27;;;9.73;;
41255;SDS011;26989;45.524;10.938;2022-10-24T08:18:37;19.80;;;9.07;;
41255;SDS011;26989;45.524;10.938;2022-10-24T08:21:06;23.35;;;9.00;;
41255;SDS011;26989;45.524;10.938;2022-10-24T08:23:35;17.45;;;9.07;;
41255;SDS011;26989;45.524;10.938;2022-10-24T08:26:04;21.73;;;10.48;;
41255;SDS011;26989;45.524;10.938;2022-10-24T08:28:31;19.65;;;9.90;;
41255;SDS011;26989;45.524;10.938;2022-10-24T08:31:01;25.08;;;10.70;;
41255;SDS011;26989;45.524;10.938;2022-10-24T08:33:32;28.92;;;11.68;;
41255;SDS011;26989;45.524;10.938;2022-10-24T08:36:04;21.40;;;9.63;;
41255;SDS011;26989;45.524;10.938;2022-10-24T08:38:39;28.17;;;11.10;;
41255;SDS011;26989;45.524;10.938;2022-10-24T08:41:07;23.90;;;11.38;;
41255;SDS011;26989;45.524;10.938;2022-10-24T08:43:41;28.80;;;9.82;;
41255;SDS011;26989;45.524;10.938;2022-10-24T08:46:20;21.83;;;10.57;;
41255;SDS011;26989;45.524;10.938;2022-10-24T08:54:22;26.08;;;10.98;;
41255;SDS011;26989;45.524;10.938;2022-10-24T08:56:54;27.25;;;11.70;;
41255;SDS011;26989;45.524;10.938;2022-10-24T08:59:23;23.55;;;11.18;;
41255;SDS011;26989;45.524;10.938;2022-10-24T09:01:55;26.10;;;11.55;;
41255;SDS011;26989;45.524;10.938;2022-10-24T09:04:33;22.20;;;11.43;;
41255;SDS011;26989;45.524;10.938;2022-10-24T09:07:06;25.67;;;11.68;;
41255;SDS011;26989;45.524;10.938;2022-10-24T09:09:39;25.88;;;12.07;;
41255;SDS011;26989;45.524;10.938;2022-10-24T09:12:13;28.58;;;13.70;;
41255;SDS011;26989;45.524;10.938;2022-10-24T09:14:43;32.80;;;15.05;;
41255;SDS011;26989;45.524;10.938;2022-10-24T09:19:54;19.23;;;11.95;;
41255;SDS011;26989;45.524;10.938;2022-10-24T09:22:29;23.80;;;11.60;;
41255;SDS011;26989;45.524;10.938;2022-10-24T09:25:06;29.23;;;12.85;;
41255;SDS011;26989;45.524;10.938;2022-10-24T09:27:38;27.17;;;12.30;;
41255;SDS011;26989;45.524;10.938;2022-10-24T09:30:06;30.65;;;11.90;;
41255;SDS011;26989;45.524;10.938;2022-10-24T09:32:40;27.88;;;10.65;;
41255;SDS011;26989;45.524;10.938;2022-10-24T09:35:15;31.65;;;12.02;;
41255;SDS011;26989;45.524;10.938;2022-10-24T09:37:55;22.02;;;9.95;;
41255;SDS011;26989;45.524;10.938;2022-10-24T09:40:24;35.45;;;14.77;;
41255;SDS011;26989;45.524;10.938;2022-10-24T09:43:00;30.30;;;14.75;;
41255;SDS011;26989;45.524;10.938;2022-10-24T09:45:38;26.08;;;13.13;;
41255;SDS011;26989;45.524;10.938;2022-10-24T09:48:17;31.27;;;12.65;;
41255;SDS011;26989;45.524;10.938;2022-10-24T09:51:08;35.35;;;14.05;;
41255;SDS011;26989;45.524;10.938;2022-10-24T10:02:24;23.70;;;11.55;;
41255;SDS011;26989;45.524;10.938;2022-10-24T10:07:31;22.55;;;11.38;;
41255;SDS011;26989;45.524;10.938;2022-10-24T10:10:03;19.25;;;9.88;;
41255;SDS011;26989;45.524;10.938;2022-10-24T10:13:02;24.13;;;11.07;;
41255;SDS011;26989;45.524;10.938;2022-10-24T10:15:44;20.50;;;11.05;;
41255;SDS011;26989;45.524;10.938;2022-10-24T10:18:33;24.98;;;10.93;;
41255;SDS011;26989;45.524;10.938;2022-10-24T10:23:33;32.45;;;13.10;;
41255;SDS011;26989;45.524;10.938;2022-10-24T10:26:22;32.22;;;16.85;;
41255;SDS011;26989;45.524;10.938;2022-10-24T10:28:58;30.23;;;13.30;;
41255;SDS011;26989;45.524;10.938;2022-10-24T10:31:49;24.92;;;12.48;;
41255;SDS011;26989;45.524;10.938;2022-10-24T10:34:38;27.90;;;14.43;;
41255;SDS011;26989;45.524;10.938;2022-10-24T10:37:27;29.27;;;14.55;;
41255;SDS011;26989;45.524;10.938;2022-10-24T10:56:02;26.08;;;15.40;;
41255;SDS011;26989;45.524;10.938;2022-10-24T11:01:47;26.88;;;15.75;;
41255;SDS011;26989;45.524;10.938;2022-10-24T11:04:43;24.45;;;15.32;;
41255;SDS011;26989;45.524;10.938;2022-10-24T11:09:55;26.42;;;14.52;;
41255;SDS011;26989;45.524;10.938;2022-10-24T11:12:25;30.92;;;16.70;;
41255;SDS011;26989;45.524;10.938;2022-10-24T11:14:59;28.23;;;15.18;;
41255;SDS011;26989;45.524;10.938;2022-10-24T11:20:19;29.65;;;15.30;;
41255;SDS011;26989;45.524;10.938;2022-10-24T11:25:45;29.65;;;15.25;;
41255;SDS011;26989;45.524;10.938;2022-10-24T11:31:17;23.52;;;14.32;;
41255;SDS011;26989;45.524;10.938;2022-10-24T11:33:52;23.55;;;12.85;;
41255;SDS011;26989;45.524;10.938;2022-10-24T11:36:40;29.33;;;14.30;;
41255;SDS011;26989;45.524;10.938;2022-10-24T11:39:24;24.63;;;12.32;;
41255;SDS011;26989;45.524;10.938;2022-10-24T11:44:59;22.50;;;11.30;;
41255;SDS011;26989;45.524;10.938;2022-10-24T11:47:40;28.55;;;11.40;;
41255;SDS011;26989;45.524;10.938;2022-10-24T11:52:51;25.35;;;11.93;;
41255;SDS011;26989;45.524;10.938;2022-10-24T11:57:54;22.00;;;11.70;;
41255;SDS011;26989;45.524;10.938;2022-10-24T12:00:26;20.53;;;10.77;;
41255;SDS011;26989;45.524;10.938;2022-10-24T12:05:41;21.60;;;9.90;;
41255;SDS011;26989;45.524;10.938;2022-10-24T12:13:42;19.83;;;9.90;;
41255;SDS011;26989;45.524;10.938;2022-10-24T12:18:58;22.17;;;9.63;;
41255;SDS011;26989;45.524;10.938;2022-10-24T12:21:33;23.67;;;9.95;;
41255;SDS011;26989;45.524;10.938;2022-10-24T12:24:04;31.45;;;19.63;;
41255;SDS011;26989;45.524;10.938;2022-10-24T12:26:51;20.30;;;9.30;;
41255;SDS011;26989;45.524;10.938;2022-10-24T12:29:22;16.30;;;9.35;;
41255;SDS011;26989;45.524;10.938;2022-10-24T12:31:50;19.05;;;9.48;;
41255;SDS011;26989;45.524;10.938;2022-10-24T12:37:01;18.38;;;8.05;;
41255;SDS011;26989;45.524;10.938;2022-10-24T12:39:45;18.75;;;8.93;;
41255;SDS011;26989;45.524;10.938;2022-10-24T12:44:50;19.40;;;8.25;;
41255;SDS011;26989;45.524;10.938;2022-10-24T12:47:38;22.70;;;8.68;;
41255;SDS011;26989;45.524;10.938;2022-10-24T13:01:11;29.08;;;10.45;;
41255;SDS011;26989;45.524;10.938;2022-10-24T13:19:42;21.52;;;9.25;;
41255;SDS011;26989;45.524;10.938;2022-10-24T13:22:26;15.88;;;9.07;;
41255;SDS011;26989;45.524;10.938;2022-10-24T13:25:06;19.52;;;8.48;;
41255;SDS011;26989;45.524;10.938;2022-10-24T13:38:38;20.40;;;8.73;;
41255;SDS011;26989;45.524;10.938;2022-10-24T13:41:08;23.80;;;9.25;;
41255;SDS011;26989;45.524;10.938;2022-10-24T13:43:38;16.67;;;7.88;;
41255;SDS011;26989;45.524;10.938;2022-10-24T13:46:11;16.70;;;7.93;;
41255;SDS011;26989;45.524;10.938;2022-10-24T13:48:57;19.00;;;8.30;;
41255;SDS011;26989;45.524;10.938;2022-10-24T13:54:01;21.80;;;8.45;;
41255;SDS011;26989;45.524;10.938;2022-10-24T13:56:37;19.95;;;7.50;;
41255;SDS011;26989;45.524;10.938;2022-10-24T13:59:25;20.08;;;8.05;;
41255;SDS011;26989;45.524;10.938;2022-10-24T14:02:00;23.10;;;8.75;;
41255;SDS011;26989;45.524;10.938;2022-10-24T14:04:31;17.00;;;8.02;;
41255;SDS011;26989;45.524;10.938;2022-10-24T14:07:05;21.90;;;8.65;;
41255;SDS011;26989;45.524;10.938;2022-10-24T14:09:37;17.05;;;8.57;;
41255;SDS011;26989;45.524;10.938;2022-10-24T14:12:16;22.30;;;8.93;;
41255;SDS011;26989;45.524;10.938;2022-10-24T14:14:46;17.70;;;8.60;;
41255;SDS011;26989;45.524;10.938;2022-10-24T14:20:01;24.30;;;9.95;;
41255;SDS011;26989;45.524;10.938;2022-10-24T14:22:45;24.88;;;9.77;;
41255;SDS011;26989;45.524;10.938;2022-10-24T14:28:02;14.88;;;8.18;;
41255;SDS011;26989;45.524;10.938;2022-10-24T14:30:39;20.60;;;9.05;;
41255;SDS011;26989;45.524;10.938;2022-10-24T14:33:21;24.95;;;9.30;;
41255;SDS011;26989;45.524;10.938;2022-10-24T14:35:49;22.45;;;9.43;;
41255;SDS011;26989;45.524;10.938;2022-10-24T14:38:22;17.00;;;9.20;;
41255;SDS011;26989;45.524;10.938;2022-10-24T14:40:50;26.55;;;10.20;;
41255;SDS011;26989;45.524;10.938;2022-10-24T14:43:33;22.08;;;10.43;;
41255;SDS011;26989;45.524;10.938;2022-10-24T14:48:51;18.38;;;8.73;;
41255;SDS011;26989;45.524;10.938;2022-10-24T14:53:57;23.48;;;10.32;;
41255;SDS011;26989;45.524;10.938;2022-10-24T14:58:59;16.80;;;10.07;;
41255;SDS011;26989;45.524;10.938;2022-10-24T15:01:28;25.83;;;9.60;;
41255;SDS011;26989;45.524;10.938;2022-10-24T15:04:00;19.42;;;10.27;;
41255;SDS011;26989;45.524;10.938;2022-10-24T15:06:36;21.85;;;10.85;;
41255;SDS011;26989;45.524;10.938;2022-10-24T15:11:41;23.30;;;11.20;;
41255;SDS011;26989;45.524;10.938;2022-10-24T15:14:36;22.48;;;10.43;;
41255;SDS011;26989;45.524;10.938;2022-10-24T15:17:21;24.92;;;11.13;;
41255;SDS011;26989;45.524;10.938;2022-10-24T15:19:54;21.38;;;10.15;;
41255;SDS011;26989;45.524;10.938;2022-10-24T15:22:26;22.67;;;10.50;;
41255;SDS011;26989;45.524;10.938;2022-10-24T15:25:04;30.98;;;16.08;;
41255;SDS011;26989;45.524;10.938;2022-10-24T15:27:42;19.10;;;11.23;;
41255;SDS011;26989;45.524;10.938;2022-10-24T15:30:18;28.85;;;12.18;;
41255;SDS011;26989;45.524;10.938;2022-10-24T15:32:48;24.27;;;12.25;;
41255;SDS011;26989;45.524;10.938;2022-10-24T15:35:16;23.30;;;11.65;;
41255;SDS011;26989;45.524;10.938;2022-10-24T15:37:56;24.42;;;13.88;;
41255;SDS011;26989;45.524;10.938;2022-10-24T15:40:29;31.52;;;16.48;;
41255;SDS011;26989;45.524;10.938;2022-10-24T15:42:59;22.73;;;12.15;;
41255;SDS011;26989;45.524;10.938;2022-10-24T15:45:26;23.02;;;11.50;;
41255;SDS011;26989;45.524;10.938;2022-10-24T15:47:53;18.90;;;11.57;;
41255;SDS011;26989;45.524;10.938;2022-10-24T15:50:21;22.00;;;11.05;;
41255;SDS011;26989;45.524;10.938;2022-10-24T15:52:53;29.00;;;11.32;;
41255;SDS011;26989;45.524;10.938;2022-10-24T15:55:23;30.05;;;11.32;;
41255;SDS011;26989;45.524;10.938;2022-10-24T15:57:51;24.63;;;12.02;;
41255;SDS011;26989;45.524;10.938;2022-10-24T16:00:19;24.13;;;11.35;;
41255;SDS011;26989;45.524;10.938;2022-10-24T16:02:48;24.75;;;12.73;;
41255;SDS011;26989;45.524;10.938;2022-10-24T16:05:17;23.05;;;11.30;;
41255;SDS011;26989;45.524;10.938;2022-10-24T16:07:47;22.63;;;12.18;;
41255;SDS011;26989;45.524;10.938;2022-10-24T16:10:15;24.70;;;12.27;;
41255;SDS011;26989;45.524;10.938;2022-10-24T16:12:44;27.25;;;12.60;;
41255;SDS011;26989;45.524;10.938;2022-10-24T16:15:19;27.35;;;13.48;;
41255;SDS011;26989;45.524;10.938;2022-10-24T16:17:52;19.55;;;13.40;;
41255;SDS011;26989;45.524;10.938;2022-10-24T16:20:19;25.10;;;13.68;;
41255;SDS011;26989;45.524;10.938;2022-10-24T16:22:46;21.13;;;13.38;;
41255;SDS011;26989;45.524;10.938;2022-10-24T16:25:24;22.70;;;13.57;;
41255;SDS011;26989;45.524;10.938;2022-10-24T16:27:53;23.50;;;14.10;;
41255;SDS011;26989;45.524;10.938;2022-10-24T16:30:22;32.42;;;15.60;;
41255;SDS011;26989;45.524;10.938;2022-10-24T16:32:52;27.42;;;14.43;;
41255;SDS011;26989;45.524;10.938;2022-10-24T16:35:21;27.42;;;14.10;;
41255;SDS011;26989;45.524;10.938;2022-10-24T16:40:18;28.75;;;14.77;;
41255;SDS011;26989;45.524;10.938;2022-10-24T16:42:47;25.30;;;14.52;;
41255;SDS011;26989;45.524;10.938;2022-10-24T16:45:15;20.75;;;13.75;;
41255;SDS011;26989;45.524;10.938;2022-10-24T16:47:43;26.27;;;14.80;;
41255;SDS011;26989;45.524;10.938;2022-10-24T16:50:14;24.10;;;14.20;;
41255;SDS011;26989;45.524;10.938;2022-10-24T16:52:42;28.05;;;14.13;;
41255;SDS011;26989;45.524;10.938;2022-10-24T16:55:11;26.52;;;13.57;;
41255;SDS011;26989;45.524;10.938;2022-10-24T16:57:38;20.95;;;11.68;;
41255;SDS011;26989;45.524;10.938;2022-10-24T17:00:06;23.85;;;11.88;;
41255;SDS011;26989;45.524;10.938;2022-10-24T17:02:34;23.98;;;10.93;;
41255;SDS011;26989;45.524;10.938;2022-10-24T17:05:01;21.73;;;11.25;;
41255;SDS011;26989;45.524;10.938;2022-10-24T17:07:28;22.27;;;10.52;;
41255;SDS011;26989;45.524;10.938;2022-10-24T17:09:54;25.60;;;11.90;;
41255;SDS011;26989;45.524;10.938;2022-10-24T17:12:22;17.95;;;10.85;;
41255;SDS011;26989;45.524;10.938;2022-10-24T17:14:49;24.15;;;11.82;;
41255;SDS011;26989;45.524;10.938;2022-10-24T17:17:16;26.35;;;12.43;;
41255;SDS011;26989;45.524;10.938;2022-10-24T17:19:42;24.23;;;11.88;;
41255;SDS011;26989;45.524;10.938;2022-10-24T17:22:13;19.60;;;11.27;;
41255;SDS011;26989;45.524;10.938;2022-10-24T17:24:40;27.80;;;11.43;;
41255;SDS011;26989;45.524;10.938;2022-10-24T17:27:10;20.60;;;11.65;;
41255;SDS011;26989;45.524;10.938;2022-10-24T17:29:38;20.95;;;12.02;;
41255;SDS011;26989;45.524;10.938;2022-10-24T17:32:06;29.33;;;14.85;;
41255;SDS011;26989;45.524;10.938;2022-10-24T17:34:33;24.02;;;13.07;;
41255;SDS011;26989;45.524;10.938;2022-10-24T17:37:09;23.85;;;12.57;;
41255;SDS011;26989;45.524;10.938;2022-10-24T17:39:47;26.05;;;13.38;;
41255;SDS011;26989;45.524;10.938;2022-10-24T17:42:15;19.13;;;12.30;;
41255;SDS011;26989;45.524;10.938;2022-10-24T17:44:43;23.08;;;12.82;;
41255;SDS011;26989;45.524;10.938;2022-10-24T17:47:10;26.45;;;12.82;;
41255;SDS011;26989;45.524;10.938;2022-10-24T17:49:37;21.67;;;12.23;;
41255;SDS011;26989;45.524;10.938;2022-10-24T17:52:04;20.63;;;12.35;;
41255;SDS011;26989;45.524;10.938;2022-10-24T17:54:31;24.42;;;12.38;;
41255;SDS011;26989;45.524;10.938;2022-10-24T17:56:58;24.38;;;12.77;;
41255;SDS011;26989;45.524;10.938;2022-10-24T17:59:25;27.80;;;12.95;;
41255;SDS011;26989;45.524;10.938;2022-10-24T18:01:52;27.15;;;13.48;;
41255;SDS011;26989;45.524;10.938;2022-10-24T18:04:19;22.00;;;12.15;;
41255;SDS011;26989;45.524;10.938;2022-10-24T18:06:45;24.85;;;12.60;;
41255;SDS011;26989;45.524;10.938;2022-10-24T18:09:12;20.67;;;12.82;;
41255;SDS011;26989;45.524;10.938;2022-10-24T18:11:39;23.75;;;12.73;;
41255;SDS011;26989;45.524;10.938;2022-10-24T18:14:06;18.10;;;12.05;;
41255;SDS011;26989;45.524;10.938;2022-10-24T18:16:33;26.90;;;13.02;;
41255;SDS011;26989;45.524;10.938;2022-10-24T18:19:02;27.05;;;13.77;;
41255;SDS011;26989;45.524;10.938;2022-10-24T18:21:29;23.98;;;11.05;;
41255;SDS011;26989;45.524;10.938;2022-10-24T18:23:56;23.15;;;12.07;;
41255;SDS011;26989;45.524;10.938;2022-10-24T18:26:25;23.13;;;12.82;;
41255;SDS011;26989;45.524;10.938;2022-10-24T18:28:53;24.70;;;12.30;;
41255;SDS011;26989;45.524;10.938;2022-10-24T18:31:21;27.65;;;13.13;;
41255;SDS011;26989;45.524;10.938;2022-10-24T18:33:50;26.15;;;13.30;;
41255;SDS011;26989;45.524;10.938;2022-10-24T18:36:21;22.08;;;12.10;;
41255;SDS011;26989;45.524;10.938;2022-10-24T18:38:50;22.52;;;12.35;;
41255;SDS011;26989;45.524;10.938;2022-10-24T18:46:54;27.83;;;11.10;;
41255;SDS011;26989;45.524;10.938;2022-10-24T18:49:22;19.30;;;10.13;;
41255;SDS011;26989;45.524;10.938;2022-10-24T18:54:31;25.15;;;10.68;;
41255;SDS011;26989;45.524;10.938;2022-10-24T18:57:01;22.83;;;10.75;;
41255;SDS011;26989;45.524;10.938;2022-10-24T18:59:41;20.77;;;9.95;;
41255;SDS011;26989;45.524;10.938;2022-10-24T19:07:41;23.00;;;9.93;;
41255;SDS011;26989;45.524;10.938;2022-10-24T19:10:13;21.27;;;9.63;;
41255;SDS011;26989;45.524;10.938;2022-10-24T19:12:41;23.90;;;9.93;;
41255;SDS011;26989;45.524;10.938;2022-10-24T19:15:09;22.00;;;10.93;;
41255;SDS011;26989;45.524;10.938;2022-10-24T19:17:36;19.10;;;9.30;;
41255;SDS011;26989;45.524;10.938;2022-10-24T19:20:03;21.50;;;10.25;;
41255;SDS011;26989;45.524;10.938;2022-10-24T19:22:30;19.50;;;9.75;;
41255;SDS011;26989;45.524;10.938;2022-10-24T19:24:57;21.88;;;10.18;;
41255;SDS011;26989;45.524;10.938;2022-10-24T19:27:24;19.00;;;9.60;;
41255;SDS011;26989;45.524;10.938;2022-10-24T19:29:51;18.80;;;9.63;;
41255;SDS011;26989;45.524;10.938;2022-10-24T19:32:18;19.20;;;9.63;;
41255;SDS011;26989;45.524;10.938;2022-10-24T19:34:45;22.38;;;9.48;;
41255;SDS011;26989;45.524;10.938;2022-10-24T19:37:11;17.23;;;9.35;;
41255;SDS011;26989;45.524;10.938;2022-10-24T19:39:40;20.10;;;8.90;;
41255;SDS011;26989;45.524;10.938;2022-10-24T19:42:07;23.27;;;10.23;;
41255;SDS011;26989;45.524;10.938;2022-10-24T19:44:34;17.83;;;9.68;;
41255;SDS011;26989;45.524;10.938;2022-10-24T19:47:01;18.42;;;9.43;;
41255;SDS011;26989;45.524;10.938;2022-10-24T19:49:28;19.73;;;9.80;;
41255;SDS011;26989;45.524;10.938;2022-10-24T19:51:54;22.95;;;9.38;;
41255;SDS011;26989;45.524;10.938;2022-10-24T19:54:22;17.90;;;9.25;;
41255;SDS011;26989;45.524;10.938;2022-10-24T19:56:51;23.08;;;11.20;;
41255;SDS011;26989;45.524;10.938;2022-10-24T19:59:20;21.45;;;9.45;;
41255;SDS011;26989;45.524;10.938;2022-10-24T20:01:47;22.48;;;9.63;;
41255;SDS011;26989;45.524;10.938;2022-10-24T20:04:14;16.33;;;9.00;;
41255;SDS011;26989;45.524;10.938;2022-10-24T20:06:45;18.15;;;9.40;;
41255;SDS011;26989;45.524;10.938;2022-10-24T20:09:13;20.88;;;8.75;;
41255;SDS011;26989;45.524;10.938;2022-10-24T20:11:40;18.10;;;8.93;;
41255;SDS011;26989;45.524;10.938;2022-10-24T20:14:06;20.92;;;8.90;;
41255;SDS011;26989;45.524;10.938;2022-10-24T20:16:33;18.98;;;9.07;;
41255;SDS011;26989;45.524;10.938;2022-10-24T20:19:00;16.90;;;10.25;;
41255;SDS011;26989;45.524;10.938;2022-10-24T20:21:27;12.98;;;7.80;;
41255;SDS011;26989;45.524;10.938;2022-10-24T20:23:54;15.82;;;8.85;;
41255;SDS011;26989;45.524;10.938;2022-10-24T20:26:22;20.52;;;9.15;;
41255;SDS011;26989;45.524;10.938;2022-10-24T20:28:51;19.20;;;9.65;;
41255;SDS011;26989;45.524;10.938;2022-10-24T20:31:24;17.33;;;9.10;;
41255;SDS011;26989;45.524;10.938;2022-10-24T20:34:04;16.65;;;8.95;;
41255;SDS011;26989;45.524;10.938;2022-10-24T20:36:35;21.80;;;10.05;;
41255;SDS011;26989;45.524;10.938;2022-10-24T20:39:04;19.27;;;9.43;;
41255;SDS011;26989;45.524;10.938;2022-10-24T20:41:32;23.13;;;9.52;;
41255;SDS011;26989;45.524;10.938;2022-10-24T20:44:00;18.85;;;9.35;;
41255;SDS011;26989;45.524;10.938;2022-10-24T20:46:28;20.55;;;8.70;;
41255;SDS011;26989;45.524;10.938;2022-10-24T20:48:54;18.23;;;8.80;;
41255;SDS011;26989;45.524;10.938;2022-10-24T20:51:22;21.05;;;8.45;;
41255;SDS011;26989;45.524;10.938;2022-10-24T20:53:49;20.58;;;8.98;;
41255;SDS011;26989;45.524;10.938;2022-10-24T20:56:19;17.92;;;8.02;;
41255;SDS011;26989;45.524;10.938;2022-10-24T20:58:48;19.38;;;8.38;;
41255;SDS011;26989;45.524;10.938;2022-10-24T21:01:19;16.67;;;8.07;;
41255;SDS011;26989;45.524;10.938;2022-10-24T21:03:48;23.73;;;8.85;;
41255;SDS011;26989;45.524;10.938;2022-10-24T21:08:50;15.75;;;8.68;;
41255;SDS011;26989;45.524;10.938;2022-10-24T21:11:18;16.35;;;9.00;;
41255;SDS011;26989;45.524;10.938;2022-10-24T21:13:51;16.85;;;8.93;;
41255;SDS011;26989;45.524;10.938;2022-10-24T21:16:29;16.63;;;9.18;;
41255;SDS011;26989;45.524;10.938;2022-10-24T21:18:57;19.52;;;8.65;;
41255;SDS011;26989;45.524;10.938;2022-10-24T21:21:24;25.92;;;8.95;;
41255;SDS011;26989;45.524;10.938;2022-10-24T21:23:52;19.40;;;8.40;;
41255;SDS011;26989;45.524;10.938;2022-10-24T21:26:30;14.63;;;8.18;;
41255;SDS011;26989;45.524;10.938;2022-10-24T21:28:57;16.73;;;8.65;;
41255;SDS011;26989;45.524;10.938;2022-10-24T21:31:39;28.13;;;10.43;;
41255;SDS011;26989;45.524;10.938;2022-10-24T21:34:06;22.55;;;9.38;;
41255;SDS011;26989;45.524;10.938;2022-10-24T21:36:33;19.48;;;8.85;;
41255;SDS011;26989;45.524;10.938;2022-10-24T21:39:00;23.40;;;9.27;;
41255;SDS011;26989;45.524;10.938;2022-10-24T21:41:27;17.30;;;9.45;;
41255;SDS011;26989;45.524;10.938;2022-10-24T21:43:54;16.83;;;9.38;;
41255;SDS011;26989;45.524;10.938;2022-10-24T21:46:21;21.25;;;9.52;;
41255;SDS011;26989;45.524;10.938;2022-10-24T21:48:50;20.65;;;9.00;;
41255;SDS011;26989;45.524;10.938;2022-10-24T21:51:22;17.85;;;9.50;;
41255;SDS011;26989;45.524;10.938;2022-10-24T21:54:04;18.23;;;8.90;;
41255;SDS011;26989;45.524;10.938;2022-10-24T21:56:33;18.77;;;7.93;;
41255;SDS011;26989;45.524;10.938;2022-10-24T21:59:04;26.17;;;8.60;;
41255;SDS011;26989;45.524;10.938;2022-10-24T22:01:33;15.45;;;8.50;;
41255;SDS011;26989;45.524;10.938;2022-10-24T22:04:02;17.40;;;9.20;;
41255;SDS011;26989;45.524;10.938;2022-10-24T22:06:29;20.92;;;9.02;;
41255;SDS011;26989;45.524;10.938;2022-10-24T22:08:57;17.52;;;8.45;;
41255;SDS011;26989;45.524;10.938;2022-10-24T22:11:26;22.02;;;8.77;;
41255;SDS011;26989;45.524;10.938;2022-10-24T22:13:54;17.30;;;8.82;;
41255;SDS011;26989;45.524;10.938;2022-10-24T22:16:22;20.02;;;8.90;;
41255;SDS011;26989;45.524;10.938;2022-10-24T22:18:51;21.27;;;9.70;;
41255;SDS011;26989;45.524;10.938;2022-10-24T22:21:35;20.27;;;8.23;;
41255;SDS011;26989;45.524;10.938;2022-10-24T22:24:07;18.85;;;9.20;;
41255;SDS011;26989;45.524;10.938;2022-10-24T22:26:36;18.75;;;9.23;;
41255;SDS011;26989;45.524;10.938;2022-10-24T22:29:04;18.35;;;8.65;;
41255;SDS011;26989;45.524;10.938;2022-10-24T22:31:32;19.40;;;8.80;;
41255;SDS011;26989;45.524;10.938;2022-10-24T22:34:00;20.63;;;8.55;;
41255;SDS011;26989;45.524;10.938;2022-10-24T22:36:39;20.42;;;8.50;;
41255;SDS011;26989;45.524;10.938;2022-10-24T22:39:14;23.35;;;8.95;;
41255;SDS011;26989;45.524;10.938;2022-10-24T22:41:43;19.40;;;7.90;;
41255;SDS011;26989;45.524;10.938;2022-10-24T22:44:12;16.85;;;8.23;;
41255;SDS011;26989;45.524;10.938;2022-10-24T22:49:35;16.45;;;8.70;;
41255;SDS011;26989;45.524;10.938;2022-10-24T22:52:09;17.48;;;8.75;;
41255;SDS011;26989;45.524;10.938;2022-10-24T22:54:37;20.98;;;8.57;;
41255;SDS011;26989;45.524;10.938;2022-10-24T22:57:04;18.60;;;8.15;;
41255;SDS011;26989;45.524;10.938;2022-10-24T22:59:32;22.52;;;7.97;;
41255;SDS011;26989;45.524;10.938;2022-10-24T23:10:14;20.25;;;8.18;;
41255;SDS011;26989;45.524;10.938;2022-10-24T23:12:44;27.85;;;8.20;;
41255;SDS011;26989;45.524;10.938;2022-10-24T23:15:11;17.65;;;9.05;;
41255;SDS011;26989;45.524;10.938;2022-10-24T23:17:40;17.58;;;8.52;;
41255;SDS011;26989;45.524;10.938;2022-10-24T23:22:59;17.60;;;7.70;;
41255;SDS011;26989;45.524;10.938;2022-10-24T23:26:06;15.63;;;8.63;;
41255;SDS011;26989;45.524;10.938;2022-10-24T23:29:00;21.65;;;8.40;;
41255;SDS011;26989;45.524;10.938;2022-10-24T23:31:37;19.23;;;9.00;;